createdAt,value
2022-08-11T00:01:59.616Z,2.50
2022-08-11T00:04:34.486Z,2.40
2022-08-11T00:07:04.185Z,1.90
2022-08-11T00:09:39.582Z,2.15
2022-08-11T00:12:14.606Z,2.33
2022-08-11T00:14:42.678Z,2.30
2022-08-11T00:17:12.392Z,2.05
2022-08-11T00:20:14.006Z,2.42
2022-08-11T00:22:33.110Z,2.47
2022-08-11T00:25:02.667Z,2.65
2022-08-11T00:27:34.795Z,2.42
2022-08-11T00:30:02.195Z,2.63
2022-08-11T00:32:30.122Z,2.75
2022-08-11T00:35:51.169Z,2.50
2022-08-11T00:37:49.770Z,2.60
2022-08-11T00:40:26.859Z,2.65
2022-08-11T00:43:20.222Z,2.67
2022-08-11T00:46:13.971Z,2.53
2022-08-11T00:48:58.623Z,2.40
2022-08-11T00:52:04.595Z,2.63
2022-08-11T00:55:10.686Z,2.75
2022-08-11T00:58:15.348Z,3.10
2022-08-11T01:01:09.459Z,2.50
2022-08-11T01:04:07.587Z,2.80
2022-08-11T01:06:52.433Z,2.92
2022-08-11T01:09:33.514Z,3.03
2022-08-11T01:12:09.493Z,2.53
2022-08-11T01:14:36.120Z,2.40
2022-08-11T01:17:26.888Z,2.90
2022-08-11T01:20:44.995Z,2.95
2022-08-11T01:23:19.656Z,2.63
2022-08-11T01:26:13.079Z,2.60
2022-08-11T01:29:24.715Z,2.60
2022-08-11T01:32:11.369Z,2.60
2022-08-11T01:35:34.786Z,2.70
2022-08-11T01:38:23.032Z,3.20
2022-08-11T01:41:54.099Z,2.93
2022-08-11T01:44:54.148Z,3.22
2022-08-11T01:47:54.436Z,3.03
2022-08-11T01:50:37.436Z,4.00
2022-08-11T01:53:20.620Z,3.05
2022-08-11T01:55:57.925Z,3.30
2022-08-11T01:58:44.465Z,2.83
2022-08-11T02:01:36.269Z,3.58
2022-08-11T02:04:14.899Z,3.63
2022-08-11T02:07:10.527Z,3.17
2022-08-11T02:09:55.280Z,2.93
2022-08-11T02:12:31.979Z,3.42
2022-08-11T02:15:36.583Z,3.38
2022-08-11T02:18:23.892Z,3.40
2022-08-11T02:21:20.627Z,3.20
2022-08-11T02:23:59.680Z,3.20
2022-08-11T02:26:41.607Z,3.15
2022-08-11T02:29:27.768Z,3.22
2022-08-11T02:32:44.859Z,3.60
2022-08-11T02:35:28.947Z,3.22
2022-08-11T02:38:17.461Z,3.40
2022-08-11T02:41:28.647Z,3.40
2022-08-11T02:44:40.283Z,3.30
2022-08-11T02:47:15.099Z,3.97
2022-08-11T02:50:02.620Z,3.70
2022-08-11T02:53:06.915Z,3.37
2022-08-11T02:55:57.325Z,3.30
2022-08-11T02:59:17.572Z,3.67
2022-08-11T03:02:06.635Z,3.20
2022-08-11T03:05:02.036Z,2.78
2022-08-11T03:07:41.567Z,3.07
2022-08-11T03:10:36.639Z,3.78
2022-08-11T03:13:40.408Z,3.78
2022-08-11T03:16:31.653Z,3.70
2022-08-11T03:18:58.348Z,3.60
2022-08-11T03:22:01.729Z,3.97
2022-08-11T03:24:46.444Z,3.53
2022-08-11T03:27:46.925Z,3.80
2022-08-11T03:30:17.531Z,4.88
2022-08-11T03:33:36.697Z,3.90
2022-08-11T03:36:19.397Z,3.93
2022-08-11T03:39:03.062Z,4.10
2022-08-11T03:42:01.596Z,3.60
2022-08-11T03:44:50.394Z,3.80
2022-08-11T03:47:41.767Z,4.10
2022-08-11T03:50:54.479Z,4.13
2022-08-11T03:53:30.794Z,3.88
2022-08-11T03:56:22.127Z,4.43
2022-08-11T03:59:17.489Z,4.50
2022-08-11T04:02:17.811Z,3.78
2022-08-11T04:05:02.951Z,4.20
2022-08-11T04:07:57.573Z,4.13
2022-08-11T04:10:54.548Z,4.10
2022-08-11T04:14:20.043Z,4.63
2022-08-11T04:17:19.539Z,4.53
2022-08-11T04:20:26.562Z,4.67
2022-08-11T04:24:36.334Z,4.57
2022-08-11T04:26:22.412Z,4.63
2022-08-11T04:30:03.432Z,4.80
2022-08-11T04:32:47.300Z,4.47
2022-08-11T04:35:20.063Z,4.73
2022-08-11T04:37:53.225Z,4.65
2022-08-11T04:40:35.427Z,4.68
2022-08-11T04:43:23.360Z,4.40
2022-08-11T04:46:34.945Z,4.38
2022-08-11T04:49:44.428Z,4.63
2022-08-11T04:52:53.648Z,5.00
2022-08-11T04:55:55.865Z,4.72
2022-08-11T04:58:55.998Z,5.18
2022-08-11T05:01:44.002Z,4.43
2022-08-11T05:05:18.278Z,4.80
2022-08-11T05:07:52.580Z,4.65
2022-08-11T05:10:43.782Z,4.80
2022-08-11T05:13:30.581Z,4.70
2022-08-11T05:16:22.041Z,4.90
2022-08-11T05:19:16.189Z,5.13
2022-08-11T05:22:13.767Z,4.47
2022-08-11T05:25:07.327Z,5.47
2022-08-11T05:28:07.479Z,4.82
2022-08-11T05:30:57.206Z,4.85
2022-08-11T05:33:54.222Z,5.27
2022-08-11T05:36:39.299Z,5.13
2022-08-11T05:39:36.316Z,4.97
2022-08-11T05:42:30.560Z,5.07
2022-08-11T05:45:42.599Z,5.65
2022-08-11T05:48:37.347Z,5.83
2022-08-11T05:51:30.379Z,5.32
2022-08-11T05:54:29.045Z,5.28
2022-08-11T05:57:02.092Z,5.28
2022-08-11T05:59:31.098Z,4.85
2022-08-11T06:02:03.314Z,5.47
2022-08-11T06:04:30.770Z,5.40
2022-08-11T06:07:00.589Z,6.00
2022-08-11T06:09:38.647Z,5.80
2022-08-11T06:12:09.104Z,5.30
2022-08-11T06:14:43.334Z,5.37
2022-08-11T06:17:10.947Z,5.00
2022-08-11T06:19:42.791Z,5.88
2022-08-11T06:22:12.046Z,5.43
2022-08-11T06:24:42.413Z,5.63
2022-08-11T06:27:13.817Z,5.13
2022-08-11T06:29:54.555Z,5.65
2022-08-11T06:32:32.364Z,4.80
2022-08-11T06:35:20.284Z,4.88
2022-08-11T06:37:59.091Z,5.25
2022-08-11T06:40:33.639Z,5.50
2022-08-11T06:43:23.103Z,4.82
2022-08-11T06:46:06.079Z,4.97
2022-08-11T06:48:33.958Z,5.50
2022-08-11T06:51:13.565Z,4.05
2022-08-11T06:54:04.843Z,5.00
2022-08-11T06:57:29.525Z,3.90
2022-08-11T07:00:04.984Z,4.75
2022-08-11T07:02:35.812Z,3.92
2022-08-11T07:05:20.871Z,4.32
2022-08-11T07:08:33.874Z,3.80
2022-08-11T07:11:17.916Z,4.55
2022-08-11T07:14:04.116Z,3.92
2022-08-11T07:16:34.731Z,3.65
2022-08-11T07:19:25.934Z,3.65
2022-08-11T07:22:14.210Z,3.93
2022-08-11T07:25:13.401Z,3.83
2022-08-11T07:28:05.135Z,4.50
2022-08-11T07:30:34.402Z,3.25
2022-08-11T07:33:03.404Z,3.50
2022-08-11T07:35:42.853Z,4.07
2022-08-11T07:38:22.082Z,4.25
2022-08-11T07:40:50.665Z,4.00
2022-08-11T07:43:17.628Z,3.45
2022-08-11T07:46:04.834Z,3.85
2022-08-11T07:48:51.795Z,3.88
2022-08-11T07:51:38.796Z,3.83
2022-08-11T07:54:16.946Z,3.92
2022-08-11T07:57:07.321Z,4.80
2022-08-11T08:00:00.907Z,3.90
2022-08-11T08:03:01.460Z,4.07
2022-08-11T08:05:48.422Z,4.30
2022-08-11T08:08:34.937Z,3.90
2022-08-11T08:11:27.111Z,4.05
2022-08-11T08:14:13.848Z,4.18
2022-08-11T08:16:59.923Z,3.75
2022-08-11T08:19:27.792Z,3.25
2022-08-11T08:21:55.295Z,3.00
2022-08-11T08:24:41.714Z,3.83
2022-08-11T08:27:12.382Z,4.60
2022-08-11T08:29:58.480Z,3.88
2022-08-11T08:32:27.801Z,3.50
2022-08-11T08:34:56.957Z,3.40
2022-08-11T08:37:47.189Z,3.50
2022-08-11T08:40:13.696Z,4.07
2022-08-11T08:42:51.448Z,3.60
2022-08-11T08:45:18.887Z,3.70
2022-08-11T08:47:53.650Z,3.30
2022-08-11T08:50:27.716Z,3.53
2022-08-11T08:53:05.676Z,3.47
2022-08-11T08:55:33.626Z,3.05
2022-08-11T08:58:01.043Z,3.22
2022-08-11T09:00:42.837Z,2.85
2022-08-11T09:03:38.254Z,3.05
2022-08-11T09:05:58.416Z,2.90
2022-08-11T09:08:25.797Z,3.00
2022-08-11T09:11:14.106Z,3.00
2022-08-11T09:13:44.219Z,2.60
2022-08-11T09:16:11.994Z,3.08
2022-08-11T09:18:40.132Z,2.50
2022-08-11T09:21:07.457Z,2.83
2022-08-11T09:24:13.054Z,2.30
2022-08-11T09:26:59.337Z,2.60
2022-08-11T09:29:31.281Z,2.42
2022-08-11T09:31:58.992Z,2.80
2022-08-11T09:34:27.012Z,3.00
2022-08-11T09:37:13.609Z,3.13
2022-08-11T09:40:15.399Z,3.30
2022-08-11T09:43:02.291Z,3.55
2022-08-11T09:45:29.395Z,3.00
2022-08-11T09:48:07.517Z,2.50
2022-08-11T09:50:36.213Z,2.90
2022-08-11T09:53:34.898Z,2.78
2022-08-11T09:55:53.858Z,2.58
2022-08-11T09:58:42.094Z,2.80
2022-08-11T10:01:26.975Z,2.53
2022-08-11T10:04:03.793Z,2.40
2022-08-11T10:06:54.371Z,2.65
2022-08-11T10:09:25.191Z,2.67
2022-08-11T10:11:58.816Z,2.70
2022-08-11T10:14:46.120Z,2.30
2022-08-11T10:17:14.604Z,2.50
2022-08-11T10:19:43.358Z,2.22
2022-08-11T10:22:29.061Z,2.60
2022-08-11T10:25:20.191Z,2.70
2022-08-11T10:28:32.745Z,2.15
2022-08-11T10:30:55.881Z,2.47
2022-08-11T10:33:57.462Z,2.28
2022-08-11T10:36:31.770Z,2.42
2022-08-11T10:39:00.730Z,2.42
2022-08-11T10:42:03.425Z,2.30
2022-08-11T10:44:45.973Z,2.67
2022-08-11T10:47:32.955Z,2.33
2022-08-11T10:50:20.887Z,2.53
2022-08-11T10:53:08.070Z,2.50
2022-08-11T10:55:58.758Z,2.28
2022-08-11T10:58:44.247Z,2.78
2022-08-11T11:01:11.720Z,2.30
2022-08-11T11:03:39.081Z,2.53
2022-08-11T11:06:28.299Z,2.70
2022-08-11T11:09:04.337Z,2.40
2022-08-11T11:11:55.645Z,2.13
2022-08-11T11:14:56.478Z,2.50
2022-08-11T11:17:56.732Z,2.10
2022-08-11T11:20:43.798Z,2.33
2022-08-11T11:23:25.373Z,2.08
2022-08-11T11:26:27.126Z,2.30
2022-08-11T11:29:10.279Z,1.92
2022-08-11T11:32:04.951Z,2.10
2022-08-11T11:35:09.480Z,2.15
2022-08-11T11:37:38.083Z,1.90
2022-08-11T11:40:13.660Z,2.10
2022-08-11T11:42:43.730Z,2.30
2022-08-11T11:45:22.537Z,2.00
2022-08-11T11:47:53.776Z,2.15
2022-08-11T11:50:31.800Z,2.08
2022-08-11T11:53:01.903Z,2.03
2022-08-11T11:55:30.585Z,2.20
2022-08-11T11:58:19.061Z,2.08
2022-08-11T12:01:05.897Z,2.03
2022-08-11T12:03:34.404Z,1.90
2022-08-11T12:06:02.466Z,2.10
2022-08-11T12:08:30.079Z,2.00
2022-08-11T12:11:24.028Z,1.90
2022-08-11T12:13:53.351Z,1.90
2022-08-11T12:16:33.912Z,1.83
2022-08-11T12:19:05.903Z,2.33
2022-08-11T12:21:34.281Z,1.80
2022-08-11T12:24:20.681Z,1.85
2022-08-11T12:27:01.436Z,1.80
2022-08-11T12:29:35.636Z,1.80
2022-08-11T12:32:07.308Z,2.03
2022-08-11T12:34:34.135Z,1.80
2022-08-11T12:37:13.524Z,2.00
2022-08-11T12:40:43.131Z,2.00
2022-08-11T12:43:24.329Z,1.80
2022-08-11T12:46:14.117Z,1.67
2022-08-11T12:49:03.858Z,2.08
2022-08-11T12:52:11.048Z,2.20
2022-08-11T12:54:59.729Z,2.25
2022-08-11T12:57:54.360Z,2.28
2022-08-11T13:00:42.460Z,2.00
2022-08-11T13:03:30.247Z,1.80
2022-08-11T13:06:00.561Z,1.90
2022-08-11T13:08:29.449Z,2.22
2022-08-11T13:11:18.219Z,2.10
2022-08-11T13:13:54.782Z,2.00
2022-08-11T13:16:53.695Z,1.88
2022-08-11T13:19:21.891Z,1.95
2022-08-11T13:21:50.762Z,2.20
2022-08-11T13:24:18.447Z,2.00
2022-08-11T13:26:49.799Z,1.70
2022-08-11T13:29:28.614Z,2.05
2022-08-11T13:32:02.226Z,1.98
2022-08-11T13:34:33.102Z,2.40
2022-08-11T13:37:02.085Z,2.03
2022-08-11T13:39:30.995Z,2.00
2022-08-11T13:42:00.140Z,2.00
2022-08-11T13:44:30.088Z,2.10
2022-08-11T13:47:01.006Z,1.52
2022-08-11T13:49:28.621Z,1.88
2022-08-11T13:51:56.683Z,1.83
2022-08-11T13:54:27.171Z,2.00
2022-08-11T13:56:57.801Z,2.08
2022-08-11T13:59:29.869Z,2.05
2022-08-11T14:02:21.650Z,1.63
2022-08-11T14:05:15.439Z,2.20
2022-08-11T14:07:50.651Z,2.00
2022-08-11T14:10:20.151Z,1.48
2022-08-11T14:13:41.236Z,2.10
2022-08-11T14:16:18.386Z,1.90
2022-08-11T14:18:47.690Z,1.90
2022-08-11T14:21:36.993Z,1.98
2022-08-11T14:24:04.741Z,2.03
2022-08-11T14:26:38.595Z,2.17
2022-08-11T14:29:14.553Z,1.90
2022-08-11T14:31:53.210Z,2.23
2022-08-11T14:34:22.713Z,2.20
2022-08-11T14:36:52.472Z,1.83
2022-08-11T14:39:23.877Z,1.90
2022-08-11T14:42:13.917Z,2.10
2022-08-11T14:45:23.109Z,1.67
2022-08-11T14:47:54.236Z,2.00
2022-08-11T14:50:33.312Z,1.75
2022-08-11T14:53:03.168Z,1.95
2022-08-11T14:55:51.078Z,2.20
2022-08-11T14:58:21.599Z,1.83
2022-08-11T15:00:57.271Z,1.98
2022-08-11T15:03:28.193Z,2.00
2022-08-11T15:05:59.979Z,2.22
2022-08-11T15:08:48.352Z,2.10
2022-08-11T15:11:36.600Z,2.27
2022-08-11T15:14:06.521Z,1.80
2022-08-11T15:16:53.143Z,1.88
2022-08-11T15:19:21.148Z,2.40
2022-08-11T15:22:08.007Z,2.13
2022-08-11T15:24:36.278Z,2.10
2022-08-11T15:27:27.943Z,1.90
2022-08-11T15:30:18.253Z,2.22
2022-08-11T15:33:23.183Z,2.22
2022-08-11T15:36:09.841Z,2.33
2022-08-11T15:38:42.601Z,1.67
2022-08-11T15:41:31.929Z,1.83
2022-08-11T15:44:18.478Z,1.90
2022-08-11T15:46:49.441Z,1.90
2022-08-11T15:50:11.270Z,1.80
2022-08-11T15:52:21.303Z,1.60
2022-08-11T15:54:49.234Z,2.03
2022-08-11T15:57:39.596Z,2.38
2022-08-11T16:00:26.639Z,1.95
2022-08-11T16:02:55.096Z,2.03
2022-08-11T16:05:46.101Z,2.20
2022-08-11T16:08:13.274Z,2.10
2022-08-11T16:10:44.026Z,1.92
2022-08-11T16:13:14.379Z,1.90
2022-08-11T16:16:04.867Z,2.05
2022-08-11T16:18:56.067Z,1.70
2022-08-11T16:21:35.088Z,1.83
2022-08-11T16:24:09.311Z,2.28
2022-08-11T16:27:08.965Z,1.98
2022-08-11T16:29:43.591Z,2.20
2022-08-11T16:32:20.565Z,1.93
2022-08-11T16:35:33.422Z,4.22
2022-08-11T16:38:21.980Z,4.10
2022-08-11T16:40:52.207Z,6.60
2022-08-11T16:43:41.687Z,4.32
2022-08-11T16:46:28.836Z,2.90
2022-08-11T16:48:56.794Z,2.72
2022-08-11T16:51:23.732Z,1.90
2022-08-11T16:54:04.330Z,5.30
2022-08-11T16:56:45.166Z,5.55
2022-08-11T16:59:22.414Z,6.73
2022-08-11T17:02:02.555Z,4.10
2022-08-11T17:05:09.860Z,1.85
2022-08-11T17:07:57.812Z,2.60
2022-08-11T17:11:08.503Z,2.72
2022-08-11T17:13:47.238Z,2.60
2022-08-11T17:16:20.777Z,2.40
2022-08-11T17:19:01.187Z,1.90
2022-08-11T17:21:30.158Z,1.95
2022-08-11T17:24:05.053Z,1.83
2022-08-11T17:26:58.003Z,1.73
2022-08-11T17:29:53.728Z,2.13
2022-08-11T17:33:01.819Z,1.90
2022-08-11T17:35:32.713Z,1.70
2022-08-11T17:38:18.076Z,2.00
2022-08-11T17:41:15.790Z,1.90
2022-08-11T17:44:09.563Z,2.05
2022-08-11T17:46:57.010Z,2.00
2022-08-11T17:49:24.863Z,2.00
2022-08-11T17:52:11.537Z,1.90
2022-08-11T17:54:59.783Z,1.83
2022-08-11T17:57:47.925Z,1.90
2022-08-11T18:00:15.487Z,1.48
2022-08-11T18:03:04.654Z,1.67
2022-08-11T18:05:34.247Z,1.88
2022-08-11T18:08:23.900Z,1.80
2022-08-11T18:11:10.994Z,1.50
2022-08-11T18:13:58.935Z,1.52
2022-08-11T18:16:44.761Z,1.63
2022-08-11T18:19:30.699Z,1.90
2022-08-11T18:22:27.459Z,1.73
2022-08-11T18:25:43.333Z,1.85
2022-08-11T18:28:33.729Z,1.50
2022-08-11T18:31:21.714Z,1.58
2022-08-11T18:34:14.317Z,1.40
2022-08-11T18:37:05.788Z,1.83
2022-08-11T18:39:56.739Z,1.52
2022-08-11T18:42:43.784Z,1.50
2022-08-11T18:45:41.671Z,1.65
2022-08-11T18:48:37.173Z,1.40
2022-08-11T18:51:31.066Z,1.33
2022-08-11T18:54:27.196Z,1.52
2022-08-11T18:57:16.361Z,1.50
2022-08-11T19:00:03.217Z,1.70
2022-08-11T19:02:50.588Z,1.70
2022-08-11T19:06:32.385Z,1.47
2022-08-11T19:08:53.767Z,1.70
2022-08-11T19:11:42.668Z,1.55
2022-08-11T19:14:30.872Z,1.73
2022-08-11T19:17:44.714Z,1.67
2022-08-11T19:20:28.246Z,1.60
2022-08-11T19:23:14.693Z,1.73
2022-08-11T19:26:05.054Z,1.27
2022-08-11T19:28:52.995Z,1.42
2022-08-11T19:31:43.822Z,1.80
2022-08-11T19:34:35.266Z,1.80
2022-08-11T19:37:25.084Z,1.50
2022-08-11T19:40:13.313Z,1.50
2022-08-11T19:43:01.735Z,1.88
2022-08-11T19:45:52.273Z,1.40
2022-08-11T19:48:40.905Z,2.00
2022-08-11T19:51:28.676Z,1.50
2022-08-11T19:54:15.999Z,1.50
2022-08-11T19:57:02.927Z,1.73
2022-08-11T19:59:50.304Z,1.60
2022-08-11T20:02:35.699Z,1.70
2022-08-11T20:05:22.065Z,1.60
2022-08-11T20:08:08.145Z,1.88
2022-08-11T20:10:55.577Z,1.58
2022-08-11T20:13:43.557Z,1.60
2022-08-11T20:16:32.778Z,1.80
2022-08-11T20:19:26.038Z,1.63
2022-08-11T20:22:26.010Z,1.80
2022-08-11T20:25:12.998Z,1.60
2022-08-11T20:28:00.161Z,1.65
2022-08-11T20:30:48.275Z,1.40
2022-08-11T20:33:37.839Z,1.67
2022-08-11T20:36:24.818Z,2.20
2022-08-11T20:39:11.224Z,1.85
2022-08-11T20:41:59.136Z,1.85
2022-08-11T20:44:48.004Z,1.42
2022-08-11T20:47:56.148Z,1.83
2022-08-11T20:50:45.971Z,1.45
2022-08-11T20:53:35.965Z,1.80
2022-08-11T20:56:28.321Z,1.52
2022-08-11T20:59:19.024Z,1.60
2022-08-11T21:02:09.479Z,2.22
2022-08-11T21:05:00.692Z,1.52
2022-08-11T21:07:56.630Z,2.13
2022-08-11T21:10:50.561Z,1.52
2022-08-11T21:13:40.659Z,1.70
2022-08-11T21:16:27.780Z,1.75
2022-08-11T21:19:59.605Z,2.00
2022-08-11T21:22:33.380Z,1.67
2022-08-11T21:25:20.008Z,2.03
2022-08-11T21:28:07.947Z,2.05
2022-08-11T21:30:57.988Z,2.13
2022-08-11T21:33:45.906Z,1.60
2022-08-11T21:36:32.795Z,2.15
2022-08-11T21:39:19.886Z,2.08
2022-08-11T21:42:12.486Z,1.98
2022-08-11T21:45:00.046Z,1.80
2022-08-11T21:47:46.511Z,1.90
2022-08-11T21:50:31.995Z,1.92
2022-08-11T21:53:18.257Z,2.13
2022-08-11T21:56:04.366Z,2.15
2022-08-11T21:58:50.926Z,2.15
2022-08-11T22:01:37.061Z,1.75
2022-08-11T22:04:23.682Z,1.92
2022-08-11T22:07:10.040Z,2.15
2022-08-11T22:09:56.020Z,1.80
2022-08-11T22:12:44.965Z,2.03
2022-08-11T22:15:31.608Z,1.90
2022-08-11T22:18:19.666Z,1.63
2022-08-11T22:21:05.546Z,2.20
2022-08-11T22:23:56.051Z,1.90
2022-08-11T22:26:42.508Z,1.85
2022-08-11T22:29:38.138Z,2.00
2022-08-11T22:32:38.033Z,3.60
2022-08-11T22:35:28.642Z,1.80
2022-08-11T22:38:16.073Z,1.85
2022-08-11T22:41:01.982Z,2.20
2022-08-11T22:43:47.365Z,1.80
2022-08-11T22:46:35.387Z,2.20
2022-08-11T22:49:21.207Z,2.33
2022-08-11T22:52:08.811Z,2.10
2022-08-11T22:54:55.214Z,1.70
2022-08-11T22:57:40.702Z,1.80
2022-08-11T23:00:46.870Z,2.15
2022-08-11T23:03:37.214Z,1.70
2022-08-11T23:06:24.321Z,1.77
2022-08-11T23:09:11.339Z,1.88
2022-08-11T23:12:07.863Z,1.70
2022-08-11T23:14:57.480Z,2.10
2022-08-11T23:17:43.902Z,1.98
2022-08-11T23:20:36.797Z,1.75
2022-08-11T23:23:29.183Z,2.05
2022-08-11T23:26:15.664Z,1.75
2022-08-11T23:29:05.244Z,1.75
2022-08-11T23:31:53.784Z,2.15
2022-08-11T23:35:04.044Z,2.10
2022-08-11T23:38:00.063Z,2.03
2022-08-11T23:40:45.808Z,2.10
2022-08-11T23:43:41.528Z,2.30
2022-08-11T23:46:27.017Z,2.20
2022-08-11T23:49:15.962Z,2.17
2022-08-11T23:52:02.489Z,2.05
2022-08-11T23:54:47.998Z,2.22
2022-08-11T23:57:33.585Z,2.28
